Terminal Aerodrome Forecast
Issued by NWS

Home | Current Version | Previous Version | Text Only | Print | Product List | Glossary On
Versions: 1 2 3 4 5 6 7 8 9 10 11 12 13 14
000
FTUS44 KBMX 131700
TAFEET
TAF
KEET 131729Z 1318/1418 19007KT P6SM SCT040 BKN060
     FM140100 00000KT P6SM FEW050
     FM141000 00000KT 4SM BR SKC
     FM141300 23006KT P6SM SCT250=

USA.gov is the U.S. government's official web portal to all federal, state and local government web resources and services.